createdAt,value
2022-10-19T00:01:22.482Z,11.15
2022-10-19T00:06:29.482Z,14.73
2022-10-19T00:11:38.400Z,9.38
2022-10-19T00:16:44.193Z,9.35
2022-10-19T00:26:56.867Z,12.00
2022-10-19T00:32:01.937Z,14.50
2022-10-19T00:37:06.931Z,14.65
2022-10-19T00:42:16.435Z,11.48
2022-10-19T00:47:22.208Z,14.63
2022-10-19T00:52:29.287Z,14.23
2022-10-19T00:57:36.906Z,10.80
2022-10-19T01:02:41.987Z,11.10
2022-10-19T01:07:47.318Z,11.82
2022-10-19T01:13:14.058Z,15.07
2022-10-19T01:18:24.335Z,14.68
2022-10-19T01:23:56.412Z,15.45
2022-10-19T01:29:09.780Z,22.38
2022-10-19T01:34:21.261Z,14.43
2022-10-19T01:39:29.721Z,15.50
2022-10-19T01:44:40.517Z,15.90
2022-10-19T01:49:52.215Z,14.50
2022-10-19T01:54:59.770Z,22.05
2022-10-19T02:00:07.691Z,18.23
2022-10-19T02:05:16.070Z,14.85
2022-10-19T02:10:21.681Z,14.48
2022-10-19T02:15:28.739Z,11.80
2022-10-19T02:20:38.218Z,13.68
2022-10-19T02:25:43.215Z,15.75
2022-10-19T02:30:48.301Z,14.82
2022-10-19T02:35:56.057Z,14.20
2022-10-19T02:41:06.985Z,14.02
2022-10-19T02:46:14.431Z,15.32
2022-10-19T02:51:39.091Z,12.43
2022-10-19T02:56:44.137Z,15.88
2022-10-19T03:01:49.241Z,18.00
2022-10-19T03:06:56.955Z,14.98
2022-10-19T03:12:02.051Z,16.85
2022-10-19T03:17:07.447Z,14.38
2022-10-19T03:22:16.079Z,14.80
2022-10-19T03:27:21.274Z,14.25
2022-10-19T03:32:26.364Z,15.73
2022-10-19T03:37:34.305Z,16.85
2022-10-19T03:47:44.349Z,19.00
2022-10-19T03:52:52.350Z,16.30
2022-10-19T03:57:57.442Z,17.23
2022-10-19T04:03:02.444Z,14.32
2022-10-19T04:08:10.352Z,19.20
2022-10-19T04:13:15.385Z,16.38
2022-10-19T04:18:20.655Z,17.60
2022-10-19T04:23:30.913Z,16.58
2022-10-19T04:28:38.414Z,18.63
2022-10-19T04:33:44.105Z,16.10
2022-10-19T04:38:51.968Z,17.35
2022-10-19T04:44:00.854Z,23.35
2022-10-19T04:49:07.092Z,24.83
2022-10-19T04:54:15.274Z,29.23
2022-10-19T05:04:25.352Z,36.10
2022-10-19T05:09:33.096Z,25.83
2022-10-19T05:14:41.908Z,29.73
2022-10-19T05:19:48.009Z,31.20
2022-10-19T05:24:58.084Z,23.17
2022-10-19T05:30:08.965Z,29.23
2022-10-19T05:35:17.500Z,26.55
2022-10-19T05:40:28.618Z,30.05
2022-10-19T05:45:38.111Z,37.25
2022-10-19T05:50:43.318Z,37.20
2022-10-19T05:55:51.484Z,37.28
2022-10-19T06:06:17.388Z,34.00
2022-10-19T06:11:27.924Z,31.98
2022-10-19T06:16:34.281Z,42.55
2022-10-19T06:21:41.969Z,38.05
2022-10-19T06:26:52.732Z,35.45
2022-10-19T06:31:59.981Z,33.90
2022-10-19T06:37:08.216Z,37.03
2022-10-19T06:42:21.317Z,33.13
2022-10-19T06:47:38.405Z,36.55
2022-10-19T06:52:55.295Z,44.08
2022-10-19T06:58:04.332Z,41.03
2022-10-19T07:03:09.776Z,35.63
2022-10-19T07:08:23.309Z,31.50
2022-10-19T07:13:32.419Z,31.45
2022-10-19T07:18:38.434Z,31.10
2022-10-19T09:34:22.221Z,19.35
2022-10-19T09:40:18.679Z,19.25
2022-10-19T09:45:34.133Z,15.90
2022-10-19T09:50:46.980Z,22.75
2022-10-19T09:56:26.058Z,16.83
2022-10-19T10:55:36.196Z,13.10
2022-10-19T11:05:49.535Z,14.68
2022-10-19T11:11:09.300Z,19.33
2022-10-19T11:16:19.251Z,18.23
2022-10-19T11:21:30.059Z,21.85
2022-10-19T11:27:04.206Z,19.33
2022-10-19T11:32:26.934Z,17.45
2022-10-19T11:37:49.387Z,20.23
2022-10-19T11:49:08.550Z,17.52
2022-10-19T11:54:49.523Z,17.75
2022-10-19T12:00:15.158Z,18.02
2022-10-19T12:06:04.221Z,20.10
2022-10-19T12:11:23.806Z,15.90
2022-10-19T12:21:47.026Z,16.38
2022-10-19T12:27:00.802Z,20.90
2022-10-19T12:32:14.525Z,19.23
2022-10-19T12:37:29.606Z,22.10
2022-10-19T12:42:53.619Z,21.35
2022-10-19T12:48:55.685Z,19.65
2022-10-19T12:54:59.942Z,18.98
2022-10-19T13:00:24.654Z,17.63
2022-10-19T13:05:44.231Z,18.55
2022-10-19T13:16:02.865Z,17.10
2022-10-19T13:21:10.577Z,18.30
2022-10-19T13:27:07.874Z,18.05
2022-10-19T13:32:38.114Z,19.75
2022-10-19T14:21:47.765Z,8.77
2022-10-19T14:50:31.704Z,8.90
2022-10-19T15:50:40.993Z,8.60
2022-10-19T15:55:49.797Z,13.88
2022-10-19T16:00:57.470Z,12.55
2022-10-19T16:06:03.006Z,12.82
2022-10-19T16:11:08.285Z,20.63
2022-10-19T16:16:20.731Z,17.30
2022-10-19T16:21:29.954Z,13.00
2022-10-19T16:26:35.120Z,11.95
2022-10-19T16:31:43.737Z,12.20
2022-10-19T16:36:49.302Z,13.13
2022-10-19T16:41:54.707Z,11.57
2022-10-19T16:47:03.058Z,15.80
2022-10-19T16:52:08.298Z,12.15
2022-10-19T16:57:13.362Z,12.43
2022-10-19T17:02:21.097Z,10.00
2022-10-19T17:07:26.610Z,11.88
2022-10-19T17:12:31.721Z,12.32
2022-10-19T17:17:39.486Z,10.40
2022-10-19T17:22:44.603Z,12.30
2022-10-19T17:27:53.172Z,12.35
2022-10-19T17:33:00.935Z,14.50
2022-10-19T17:38:05.978Z,12.13
2022-10-19T17:43:11.023Z,14.73
2022-10-19T17:48:19.210Z,10.50
2022-10-19T17:53:24.355Z,11.23
2022-10-19T17:58:29.442Z,11.13
2022-10-19T18:03:38.348Z,16.80
2022-10-19T18:08:44.913Z,15.95
2022-10-19T18:13:50.652Z,15.65
2022-10-19T18:18:59.883Z,15.95
2022-10-19T18:24:06.786Z,15.15
2022-10-19T18:29:14.978Z,13.63
2022-10-19T18:34:24.452Z,20.08
2022-10-19T18:39:29.465Z,16.02
2022-10-19T18:44:34.418Z,16.80
2022-10-19T18:49:42.071Z,11.35
2022-10-19T18:59:52.133Z,11.95
2022-10-19T19:04:59.956Z,12.32
2022-10-19T19:10:05.177Z,8.70
2022-10-19T19:15:11.589Z,12.77
2022-10-19T19:20:19.280Z,9.82
2022-10-19T19:30:29.472Z,9.90
2022-10-19T19:35:37.090Z,12.45
2022-10-19T19:40:43.294Z,20.67
2022-10-19T19:46:00.874Z,15.05
2022-10-19T19:51:11.793Z,17.55
2022-10-19T19:56:18.418Z,12.20
2022-10-19T20:01:24.520Z,9.75
2022-10-19T20:06:32.258Z,16.33
2022-10-19T20:16:47.038Z,9.57
2022-10-19T20:21:56.478Z,9.65
2022-10-19T20:27:01.501Z,11.38
2022-10-19T20:32:06.435Z,11.93
2022-10-19T20:37:14.139Z,11.50
2022-10-19T20:42:19.990Z,8.70
2022-10-19T20:47:25.124Z,15.20
2022-10-19T20:52:33.009Z,9.35
2022-10-19T20:57:38.323Z,10.63
2022-10-19T21:02:43.323Z,16.98
2022-10-19T21:07:50.851Z,10.55
2022-10-19T21:12:55.838Z,11.00
2022-10-19T21:18:00.940Z,12.25
2022-10-19T21:23:08.592Z,12.18
2022-10-19T21:28:13.567Z,11.70
2022-10-19T21:33:18.615Z,12.50
2022-10-19T21:38:26.320Z,11.50
2022-10-19T21:43:31.692Z,10.63
2022-10-19T21:48:37.240Z,10.27
2022-10-19T21:53:45.451Z,8.90
2022-10-19T21:58:51.078Z,11.88
2022-10-19T22:03:59.143Z,11.88
2022-10-19T22:09:09.109Z,17.63
2022-10-19T22:14:16.333Z,12.10
2022-10-19T22:19:21.534Z,15.18
2022-10-19T22:24:29.247Z,13.77
2022-10-19T22:29:34.308Z,12.80
2022-10-19T22:34:39.622Z,13.82
2022-10-19T22:39:47.441Z,14.20
2022-10-19T22:44:52.604Z,10.25
2022-10-19T22:49:57.655Z,13.20
2022-10-19T22:55:05.356Z,14.07
2022-10-19T23:00:11.889Z,13.02
2022-10-19T23:05:17.168Z,11.57
2022-10-19T23:10:24.964Z,13.18
2022-10-19T23:15:30.433Z,13.45
2022-10-19T23:20:35.506Z,21.63
2022-10-19T23:25:43.224Z,11.50
2022-10-19T23:30:48.267Z,11.70
2022-10-19T23:35:53.311Z,11.23
2022-10-19T23:41:01.016Z,10.93
2022-10-19T23:46:06.236Z,12.25
2022-10-19T23:51:12.715Z,11.20
2022-10-19T23:56:22.594Z,12.82
